sensor_id;sensor_type;location;lat;lon;timestamp;pressure;altitude;pressure_sealevel;temperature;humidity
81865;BME280;71313;43.514;1.500;2023-09-19T00:00:22;100266.91;;;23.50;52.47
81865;BME280;71313;43.514;1.500;2023-09-19T00:02:56;100281.97;;;23.54;52.87
81865;BME280;71313;43.514;1.500;2023-09-19T00:05:23;100274.44;;;23.48;52.66
81865;BME280;71313;43.514;1.500;2023-09-19T00:07:52;100289.84;;;23.49;52.43
81865;BME280;71313;43.514;1.500;2023-09-19T00:10:25;100286.94;;;23.51;53.28
81865;BME280;71313;43.514;1.500;2023-09-19T00:12:55;100290.09;;;23.40;53.16
81865;BME280;71313;43.514;1.500;2023-09-19T00:15:25;100280.81;;;23.41;53.00
81865;BME280;71313;43.514;1.500;2023-09-19T00:17:54;100279.00;;;23.33;53.58
81865;BME280;71313;43.514;1.500;2023-09-19T00:20:19;100278.66;;;23.36;53.10
81865;BME280;71313;43.514;1.500;2023-09-19T00:22:46;100271.66;;;23.34;52.94
81865;BME280;71313;43.514;1.500;2023-09-19T00:25:12;100277.78;;;23.36;52.66
81865;BME280;71313;43.514;1.500;2023-09-19T00:27:40;100270.25;;;23.38;53.17
81865;BME280;71313;43.514;1.500;2023-09-19T00:30:09;100265.00;;;23.28;52.87
81865;BME280;71313;43.514;1.500;2023-09-19T00:32:50;100264.50;;;23.24;53.50
81865;BME280;71313;43.514;1.500;2023-09-19T00:35:20;100269.13;;;23.24;53.71
81865;BME280;71313;43.514;1.500;2023-09-19T00:37:46;100265.72;;;23.22;53.53
81865;BME280;71313;43.514;1.500;2023-09-19T00:40:11;100265.34;;;23.25;53.45
81865;BME280;71313;43.514;1.500;2023-09-19T00:42:43;100275.97;;;23.20;53.92
81865;BME280;71313;43.514;1.500;2023-09-19T00:45:10;100266.41;;;23.16;53.35
81865;BME280;71313;43.514;1.500;2023-09-19T00:47:49;100271.41;;;23.12;53.71
81865;BME280;71313;43.514;1.500;2023-09-19T00:50:17;100274.97;;;23.13;53.56
81865;BME280;71313;43.514;1.500;2023-09-19T00:52:44;100265.78;;;23.06;54.58
81865;BME280;71313;43.514;1.500;2023-09-19T00:55:11;100274.47;;;23.09;53.75
81865;BME280;71313;43.514;1.500;2023-09-19T00:57:39;100273.13;;;23.05;53.80
81865;BME280;71313;43.514;1.500;2023-09-19T01:00:08;100268.53;;;22.97;54.04
81865;BME280;71313;43.514;1.500;2023-09-19T01:02:37;100278.13;;;22.93;53.74
81865;BME280;71313;43.514;1.500;2023-09-19T01:05:02;100271.97;;;22.91;53.98
81865;BME280;71313;43.514;1.500;2023-09-19T01:07:32;100268.19;;;23.01;54.51
81865;BME280;71313;43.514;1.500;2023-09-19T01:09:59;100264.09;;;22.96;54.54
81865;BME280;71313;43.514;1.500;2023-09-19T01:18:03;100265.13;;;22.95;54.46
81865;BME280;71313;43.514;1.500;2023-09-19T01:31:29;100254.34;;;22.94;54.44
81865;BME280;71313;43.514;1.500;2023-09-19T01:33:58;100257.94;;;22.94;54.13
81865;BME280;71313;43.514;1.500;2023-09-19T01:36:29;100254.84;;;22.97;53.69
81865;BME280;71313;43.514;1.500;2023-09-19T01:38:57;100252.13;;;22.89;54.27
81865;BME280;71313;43.514;1.500;2023-09-19T01:44:03;100260.69;;;22.86;54.06
81865;BME280;71313;43.514;1.500;2023-09-19T01:46:39;100253.84;;;22.90;54.67
81865;BME280;71313;43.514;1.500;2023-09-19T01:49:33;100253.16;;;22.88;54.70
81865;BME280;71313;43.514;1.500;2023-09-19T01:52:12;100248.03;;;22.85;53.78
81865;BME280;71313;43.514;1.500;2023-09-19T01:54:52;100248.03;;;22.77;54.41
81865;BME280;71313;43.514;1.500;2023-09-19T01:57:27;100240.00;;;22.76;54.05
81865;BME280;71313;43.514;1.500;2023-09-19T02:00:01;100244.13;;;22.80;54.16
81865;BME280;71313;43.514;1.500;2023-09-19T02:02:34;100232.34;;;22.79;54.29
81865;BME280;71313;43.514;1.500;2023-09-19T02:04:59;100238.47;;;22.81;53.82
81865;BME280;71313;43.514;1.500;2023-09-19T02:07:25;100231.31;;;22.80;54.10
81865;BME280;71313;43.514;1.500;2023-09-19T02:09:52;100233.34;;;22.78;54.18
81865;BME280;71313;43.514;1.500;2023-09-19T02:12:17;100232.34;;;22.79;53.99
81865;BME280;71313;43.514;1.500;2023-09-19T02:14:43;100241.22;;;22.81;54.35
81865;BME280;71313;43.514;1.500;2023-09-19T02:17:08;100241.53;;;22.78;53.77
81865;BME280;71313;43.514;1.500;2023-09-19T02:19:36;100239.84;;;22.77;54.57
81865;BME280;71313;43.514;1.500;2023-09-19T02:22:04;100244.44;;;22.77;54.78
81865;BME280;71313;43.514;1.500;2023-09-19T02:24:36;100240.00;;;22.76;54.20
81865;BME280;71313;43.514;1.500;2023-09-19T02:27:03;100232.66;;;22.76;54.15
81865;BME280;71313;43.514;1.500;2023-09-19T02:29:29;100239.84;;;22.77;54.74
81865;BME280;71313;43.514;1.500;2023-09-19T02:31:55;100229.59;;;22.71;54.60
81865;BME280;71313;43.514;1.500;2023-09-19T02:34:21;100234.38;;;22.77;54.54
81865;BME280;71313;43.514;1.500;2023-09-19T02:36:47;100226.69;;;22.73;54.50
81865;BME280;71313;43.514;1.500;2023-09-19T02:39:12;100230.94;;;22.75;54.67
81865;BME280;71313;43.514;1.500;2023-09-19T02:41:38;100233.34;;;22.70;54.12
81865;BME280;71313;43.514;1.500;2023-09-19T02:44:03;100224.97;;;22.72;54.92
81865;BME280;71313;43.514;1.500;2023-09-19T02:46:32;100224.47;;;22.68;54.64
81865;BME280;71313;43.514;1.500;2023-09-19T02:48:58;100229.25;;;22.66;54.92
81865;BME280;71313;43.514;1.500;2023-09-19T02:51:23;100217.66;;;22.64;54.96
81865;BME280;71313;43.514;1.500;2023-09-19T02:53:50;100222.75;;;22.67;54.12
81865;BME280;71313;43.514;1.500;2023-09-19T02:56:17;100223.28;;;22.62;54.37
81865;BME280;71313;43.514;1.500;2023-09-19T02:58:43;100215.44;;;22.59;54.40
81865;BME280;71313;43.514;1.500;2023-09-19T03:01:12;100207.75;;;22.55;54.85
81865;BME280;71313;43.514;1.500;2023-09-19T03:03:38;100205.88;;;22.55;54.90
81865;BME280;71313;43.514;1.500;2023-09-19T03:06:06;100214.94;;;22.56;54.70
81865;BME280;71313;43.514;1.500;2023-09-19T03:08:34;100215.09;;;22.54;54.64
81865;BME280;71313;43.514;1.500;2023-09-19T03:11:03;100211.16;;;22.57;55.02
81865;BME280;71313;43.514;1.500;2023-09-19T03:13:31;100206.38;;;22.51;55.10
81865;BME280;71313;43.514;1.500;2023-09-19T03:15:57;100211.69;;;22.52;54.21
81865;BME280;71313;43.514;1.500;2023-09-19T03:18:24;100205.38;;;22.44;54.64
81865;BME280;71313;43.514;1.500;2023-09-19T03:20:55;100204.34;;;22.45;54.94
81865;BME280;71313;43.514;1.500;2023-09-19T03:23:21;100209.81;;;22.45;54.33
81865;BME280;71313;43.514;1.500;2023-09-19T03:25:47;100218.03;;;22.45;54.88
81865;BME280;71313;43.514;1.500;2023-09-19T03:28:13;100214.25;;;22.46;54.68
81865;BME280;71313;43.514;1.500;2023-09-19T03:30:40;100206.06;;;22.46;55.07
81865;BME280;71313;43.514;1.500;2023-09-19T03:33:05;100201.63;;;22.45;54.95
81865;BME280;71313;43.514;1.500;2023-09-19T03:35:31;100205.38;;;22.44;54.54
81865;BME280;71313;43.514;1.500;2023-09-19T03:37:56;100210.84;;;22.44;54.38
81865;BME280;71313;43.514;1.500;2023-09-19T03:40:22;100209.16;;;22.43;54.84
81865;BME280;71313;43.514;1.500;2023-09-19T03:42:48;100210.34;;;22.40;54.55
81865;BME280;71313;43.514;1.500;2023-09-19T03:45:14;100203.34;;;22.38;55.10
81865;BME280;71313;43.514;1.500;2023-09-19T03:50:06;100212.41;;;22.38;54.70
81865;BME280;71313;43.514;1.500;2023-09-19T03:52:40;100210.88;;;22.35;55.61
81865;BME280;71313;43.514;1.500;2023-09-19T03:55:06;100199.25;;;22.33;55.27
81865;BME280;71313;43.514;1.500;2023-09-19T03:57:31;100210.19;;;22.33;55.59
81865;BME280;71313;43.514;1.500;2023-09-19T03:59:57;100206.09;;;22.29;54.95
81865;BME280;71313;43.514;1.500;2023-09-19T04:02:23;100201.66;;;22.28;55.31
81865;BME280;71313;43.514;1.500;2023-09-19T04:04:50;100205.41;;;22.27;54.98
81865;BME280;71313;43.514;1.500;2023-09-19T04:07:16;100204.03;;;22.23;55.10
81865;BME280;71313;43.514;1.500;2023-09-19T04:09:42;100200.63;;;22.21;54.85
81865;BME280;71313;43.514;1.500;2023-09-19T04:12:07;100204.03;;;22.23;55.60
81865;BME280;71313;43.514;1.500;2023-09-19T04:14:36;100201.47;;;22.22;55.45
81865;BME280;71313;43.514;1.500;2023-09-19T04:17:01;100202.84;;;22.18;55.81
81865;BME280;71313;43.514;1.500;2023-09-19T04:19:27;100197.72;;;22.15;55.68
81865;BME280;71313;43.514;1.500;2023-09-19T04:21:52;100193.63;;;22.11;55.63
81865;BME280;71313;43.514;1.500;2023-09-19T04:24:18;100187.47;;;22.00;55.28
81865;BME280;71313;43.514;1.500;2023-09-19T04:26:44;100197.91;;;22.05;55.67
81865;BME280;71313;43.514;1.500;2023-09-19T04:29:10;100193.78;;;22.01;55.88
81865;BME280;71313;43.514;1.500;2023-09-19T04:31:38;100193.78;;;22.01;55.45
81865;BME280;71313;43.514;1.500;2023-09-19T04:34:06;100197.38;;;22.01;55.33
81865;BME280;71313;43.514;1.500;2023-09-19T04:36:33;100194.13;;;21.98;55.67
81865;BME280;71313;43.514;1.500;2023-09-19T04:38:58;100192.75;;;21.94;55.63
81865;BME280;71313;43.514;1.500;2023-09-19T04:41:23;100197.88;;;21.97;56.15
81865;BME280;71313;43.514;1.500;2023-09-19T04:43:49;100194.47;;;21.95;56.23
81865;BME280;71313;43.514;1.500;2023-09-19T04:46:16;100195.50;;;21.94;55.87
81865;BME280;71313;43.514;1.500;2023-09-19T04:48:43;100194.47;;;21.95;56.36
81865;BME280;71313;43.514;1.500;2023-09-19T04:51:08;100196.19;;;21.88;55.75
81865;BME280;71313;43.514;1.500;2023-09-19T04:53:33;100192.41;;;21.89;55.77
81865;BME280;71313;43.514;1.500;2023-09-19T04:55:59;100192.75;;;21.86;55.76
81865;BME280;71313;43.514;1.500;2023-09-19T04:58:24;100194.63;;;21.85;55.91
81865;BME280;71313;43.514;1.500;2023-09-19T05:00:49;100197.53;;;21.84;56.25
81865;BME280;71313;43.514;1.500;2023-09-19T05:03:16;100201.97;;;21.85;56.52
81865;BME280;71313;43.514;1.500;2023-09-19T05:05:42;100203.00;;;21.84;55.62
81865;BME280;71313;43.514;1.500;2023-09-19T05:08:08;100210.50;;;21.82;56.20
81865;BME280;71313;43.514;1.500;2023-09-19T05:10:34;100206.06;;;21.81;55.88
81865;BME280;71313;43.514;1.500;2023-09-19T05:13:06;100212.91;;;21.85;55.69
81865;BME280;71313;43.514;1.500;2023-09-19T05:15:33;100211.88;;;21.86;55.84
81865;BME280;71313;43.514;1.500;2023-09-19T05:17:58;100212.91;;;21.85;56.11
81865;BME280;71313;43.514;1.500;2023-09-19T05:20:24;100212.56;;;21.80;56.20
81865;BME280;71313;43.514;1.500;2023-09-19T05:23:01;100221.44;;;21.82;55.83
81865;BME280;71313;43.514;1.500;2023-09-19T05:25:30;100209.81;;;21.71;56.75
81865;BME280;71313;43.514;1.500;2023-09-19T05:27:57;100228.09;;;21.79;56.75
81865;BME280;71313;43.514;1.500;2023-09-19T05:30:26;100228.78;;;21.73;56.48
81865;BME280;71313;43.514;1.500;2023-09-19T05:32:53;100234.06;;;21.66;56.60
81865;BME280;71313;43.514;1.500;2023-09-19T05:35:19;100233.34;;;21.56;56.54
81865;BME280;71313;43.514;1.500;2023-09-19T05:37:46;100228.91;;;21.47;57.01
81865;BME280;71313;43.514;1.500;2023-09-19T05:40:12;100227.53;;;21.43;57.02
81865;BME280;71313;43.514;1.500;2023-09-19T05:42:40;100232.63;;;21.38;57.53
81865;BME280;71313;43.514;1.500;2023-09-19T05:45:06;100233.63;;;21.29;57.57
81865;BME280;71313;43.514;1.500;2023-09-19T05:47:32;100243.84;;;21.27;57.74
81865;BME280;71313;43.514;1.500;2023-09-19T05:49:57;100241.63;;;21.22;57.54
81865;BME280;71313;43.514;1.500;2023-09-19T05:52:24;100234.22;;;21.15;58.05
81865;BME280;71313;43.514;1.500;2023-09-19T05:54:49;100249.75;;;21.14;58.73
81865;BME280;71313;43.514;1.500;2023-09-19T05:57:15;100256.38;;;21.12;58.01
81865;BME280;71313;43.514;1.500;2023-09-19T05:59:41;100260.13;;;21.11;58.82
81865;BME280;71313;43.514;1.500;2023-09-19T06:02:08;100258.41;;;21.10;58.79
81865;BME280;71313;43.514;1.500;2023-09-19T06:04:35;100271.03;;;21.11;58.80
81865;BME280;71313;43.514;1.500;2023-09-19T06:07:00;100260.44;;;21.07;58.97
81865;BME280;71313;43.514;1.500;2023-09-19T06:09:26;100266.25;;;21.04;58.11
81865;BME280;71313;43.514;1.500;2023-09-19T06:11:53;100269.28;;;21.01;58.41
81865;BME280;71313;43.514;1.500;2023-09-19T06:14:18;100265.19;;;20.97;59.38
81865;BME280;71313;43.514;1.500;2023-09-19T06:16:44;100270.97;;;20.94;58.70
81865;BME280;71313;43.514;1.500;2023-09-19T06:19:10;100274.72;;;20.93;58.45
81865;BME280;71313;43.514;1.500;2023-09-19T06:21:36;100273.00;;;20.92;58.57
81865;BME280;71313;43.514;1.500;2023-09-19T06:24:02;100255.25;;;20.88;58.77
81865;BME280;71313;43.514;1.500;2023-09-19T06:26:28;100262.94;;;20.93;58.82
81865;BME280;71313;43.514;1.500;2023-09-19T06:28:54;100262.94;;;20.93;59.54
81865;BME280;71313;43.514;1.500;2023-09-19T06:31:21;100270.28;;;20.92;59.11
81865;BME280;71313;43.514;1.500;2023-09-19T06:33:48;100269.25;;;20.93;59.54
81865;BME280;71313;43.514;1.500;2023-09-19T06:36:13;100266.84;;;20.90;59.43
81865;BME280;71313;43.514;1.500;2023-09-19T06:38:39;100269.25;;;20.93;59.78
81865;BME280;71313;43.514;1.500;2023-09-19T06:41:04;100263.78;;;20.93;59.45
81865;BME280;71313;43.514;1.500;2023-09-19T06:43:33;100275.78;;;21.00;59.48
81865;BME280;71313;43.514;1.500;2023-09-19T06:46:00;100260.41;;;20.99;59.83
81865;BME280;71313;43.514;1.500;2023-09-19T06:48:26;100269.66;;;21.06;59.49
81865;BME280;71313;43.514;1.500;2023-09-19T06:50:57;100269.34;;;21.10;59.29
81865;BME280;71313;43.514;1.500;2023-09-19T06:53:24;100265.06;;;21.07;59.25
81865;BME280;71313;43.514;1.500;2023-09-19T06:55:50;100261.09;;;21.01;59.54
81865;BME280;71313;43.514;1.500;2023-09-19T06:58:16;100255.50;;;21.03;59.08
81865;BME280;71313;43.514;1.500;2023-09-19T07:00:42;100253.28;;;21.06;59.11
81865;BME280;71313;43.514;1.500;2023-09-19T07:03:08;100262.69;;;21.12;58.91
81865;BME280;71313;43.514;1.500;2023-09-19T07:05:37;100267.28;;;21.12;59.67
81865;BME280;71313;43.514;1.500;2023-09-19T07:08:05;100260.66;;;21.14;59.64
81865;BME280;71313;43.514;1.500;2023-09-19T07:10:32;100258.97;;;21.21;58.92
81865;BME280;71313;43.514;1.500;2023-09-19T07:13:03;100260.56;;;21.24;59.13
81865;BME280;71313;43.514;1.500;2023-09-19T07:15:29;100261.09;;;21.27;59.58
81865;BME280;71313;43.514;1.500;2023-09-19T07:18:05;100264.34;;;21.31;60.10
81865;BME280;71313;43.514;1.500;2023-09-19T07:20:31;100253.78;;;21.36;59.79
81865;BME280;71313;43.514;1.500;2023-09-19T07:23:00;100252.59;;;21.38;59.64
81865;BME280;71313;43.514;1.500;2023-09-19T07:25:26;100257.88;;;21.40;60.22
81865;BME280;71313;43.514;1.500;2023-09-19T07:27:52;100249.84;;;21.38;59.59
81865;BME280;71313;43.514;1.500;2023-09-19T07:30:19;100260.28;;;21.43;59.25
81865;BME280;71313;43.514;1.500;2023-09-19T07:32:45;100252.09;;;21.43;59.42
81865;BME280;71313;43.514;1.500;2023-09-19T07:35:10;100261.66;;;21.47;60.40
81865;BME280;71313;43.514;1.500;2023-09-19T07:37:37;100252.44;;;21.48;59.91
81865;BME280;71313;43.514;1.500;2023-09-19T07:40:03;100258.44;;;21.52;60.70
81865;BME280;71313;43.514;1.500;2023-09-19T07:42:33;100257.25;;;21.54;60.06
81865;BME280;71313;43.514;1.500;2023-09-19T07:45:00;100259.31;;;21.60;60.51
81865;BME280;71313;43.514;1.500;2023-09-19T07:47:26;100265.28;;;21.64;60.09
81865;BME280;71313;43.514;1.500;2023-09-19T07:49:52;100263.59;;;21.71;60.09
81865;BME280;71313;43.514;1.500;2023-09-19T07:52:18;100267.88;;;21.74;60.63
81865;BME280;71313;43.514;1.500;2023-09-19T07:54:44;100271.28;;;21.76;60.58
81865;BME280;71313;43.514;1.500;2023-09-19T07:57:10;100276.06;;;21.82;60.90
81865;BME280;71313;43.514;1.500;2023-09-19T07:59:37;100279.16;;;21.79;60.92
81865;BME280;71313;43.514;1.500;2023-09-19T08:02:04;100278.31;;;21.86;60.68
81865;BME280;71313;43.514;1.500;2023-09-19T08:04:30;100283.94;;;21.85;60.47
81865;BME280;71313;43.514;1.500;2023-09-19T08:06:59;100280.53;;;21.91;60.31
81865;BME280;71313;43.514;1.500;2023-09-19T08:09:26;100284.97;;;21.92;60.65
81865;BME280;71313;43.514;1.500;2023-09-19T08:11:51;100281.03;;;21.94;60.27
81865;BME280;71313;43.514;1.500;2023-09-19T08:14:16;100285.31;;;21.97;60.60
81865;BME280;71313;43.514;1.500;2023-09-19T08:16:42;100290.44;;;22.00;60.50
81865;BME280;71313;43.514;1.500;2023-09-19T08:19:09;100290.81;;;22.05;60.73
81865;BME280;71313;43.514;1.500;2023-09-19T08:21:35;100291.84;;;22.04;60.04
81865;BME280;71313;43.514;1.500;2023-09-19T08:24:01;100301.25;;;22.10;59.89
81865;BME280;71313;43.514;1.500;2023-09-19T08:26:29;100294.94;;;22.09;60.05
81865;BME280;71313;43.514;1.500;2023-09-19T08:28:56;100300.75;;;22.14;59.48
81865;BME280;71313;43.514;1.500;2023-09-19T08:31:21;100303.13;;;22.17;59.45
81865;BME280;71313;43.514;1.500;2023-09-19T08:33:47;100304.84;;;22.18;60.19
81865;BME280;71313;43.514;1.500;2023-09-19T08:36:14;100300.41;;;22.17;60.26
81865;BME280;71313;43.514;1.500;2023-09-19T08:38:40;100300.75;;;22.22;59.43
81865;BME280;71313;43.514;1.500;2023-09-19T08:41:07;100306.56;;;22.27;60.31
81865;BME280;71313;43.514;1.500;2023-09-19T08:43:34;100303.13;;;22.33;60.11
81865;BME280;71313;43.514;1.500;2023-09-19T08:48:31;100306.22;;;22.39;60.04
81865;BME280;71313;43.514;1.500;2023-09-19T08:51:02;100296.81;;;22.49;59.80
81865;BME280;71313;43.514;1.500;2023-09-19T08:53:42;100299.88;;;22.54;59.38
81865;BME280;71313;43.514;1.500;2023-09-19T08:56:12;100290.31;;;22.58;59.11
81865;BME280;71313;43.514;1.500;2023-09-19T08:59:02;100292.19;;;22.66;58.62
81865;BME280;71313;43.514;1.500;2023-09-19T09:01:29;100297.13;;;22.62;59.53
81865;BME280;71313;43.514;1.500;2023-09-19T09:03:58;100286.72;;;22.58;59.33
81865;BME280;71313;43.514;1.500;2023-09-19T09:06:24;100300.38;;;22.66;59.19
81865;BME280;71313;43.514;1.500;2023-09-19T09:08:50;100303.97;;;22.75;58.36
81865;BME280;71313;43.514;1.500;2023-09-19T09:11:17;100291.13;;;22.75;58.95
81865;BME280;71313;43.514;1.500;2023-09-19T09:13:44;100299.53;;;22.82;58.46
81865;BME280;71313;43.514;1.500;2023-09-19T09:16:10;100292.53;;;22.79;57.64
81865;BME280;71313;43.514;1.500;2023-09-19T09:18:36;100296.59;;;22.91;57.93
81865;BME280;71313;43.514;1.500;2023-09-19T09:21:02;100300.69;;;22.95;58.64
81865;BME280;71313;43.514;1.500;2023-09-19T09:23:30;100290.44;;;22.97;58.28
81865;BME280;71313;43.514;1.500;2023-09-19T09:25:57;100291.78;;;23.02;57.32
81865;BME280;71313;43.514;1.500;2023-09-19T09:28:31;100283.06;;;23.06;58.20
81865;BME280;71313;43.514;1.500;2023-09-19T09:30:57;100284.91;;;23.14;57.67
81865;BME280;71313;43.514;1.500;2023-09-19T09:33:34;100275.31;;;23.18;57.38
81865;BME280;71313;43.514;1.500;2023-09-19T09:36:00;100274.94;;;23.21;57.44
81865;BME280;71313;43.514;1.500;2023-09-19T09:38:46;100271.19;;;23.22;57.51
81865;BME280;71313;43.514;1.500;2023-09-19T09:41:15;100269.97;;;23.24;56.77
81865;BME280;71313;43.514;1.500;2023-09-19T09:43:52;100275.25;;;23.34;56.63
81865;BME280;71313;43.514;1.500;2023-09-19T09:46:20;100272.91;;;23.46;56.85
81865;BME280;71313;43.514;1.500;2023-09-19T09:51:38;100262.75;;;23.62;56.87
81865;BME280;71313;43.514;1.500;2023-09-19T09:54:14;100269.59;;;23.67;56.52
81865;BME280;71313;43.514;1.500;2023-09-19T09:59:20;100275.78;;;23.60;56.10
81865;BME280;71313;43.514;1.500;2023-09-19T10:01:49;100275.44;;;23.63;56.00
81865;BME280;71313;43.514;1.500;2023-09-19T10:04:27;100269.59;;;23.67;55.98
81865;BME280;71313;43.514;1.500;2023-09-19T10:07:02;100270.94;;;23.71;55.92
81865;BME280;71313;43.514;1.500;2023-09-19T10:09:30;100271.59;;;23.73;56.09
81865;BME280;71313;43.514;1.500;2023-09-19T10:12:11;100269.19;;;23.78;56.16
81865;BME280;71313;43.514;1.500;2023-09-19T10:14:38;100264.38;;;23.80;56.59
81865;BME280;71313;43.514;1.500;2023-09-19T10:17:10;100261.56;;;23.88;55.93
81865;BME280;71313;43.514;1.500;2023-09-19T10:19:54;100264.97;;;23.90;54.88
81865;BME280;71313;43.514;1.500;2023-09-19T10:22:23;100260.09;;;24.00;55.38
81865;BME280;71313;43.514;1.500;2023-09-19T10:24:53;100257.41;;;24.15;54.61
81865;BME280;71313;43.514;1.500;2023-09-19T10:27:24;100259.25;;;24.22;54.35
81865;BME280;71313;43.514;1.500;2023-09-19T10:29:51;100264.34;;;24.25;54.14
81865;BME280;71313;43.514;1.500;2023-09-19T10:32:22;100255.34;;;24.40;53.61
81865;BME280;71313;43.514;1.500;2023-09-19T10:34:49;100252.16;;;24.51;54.01
81865;BME280;71313;43.514;1.500;2023-09-19T10:37:18;100242.81;;;24.60;53.59
81865;BME280;71313;43.514;1.500;2023-09-19T10:39:47;100244.63;;;24.68;53.60
81865;BME280;71313;43.514;1.500;2023-09-19T10:42:20;100239.13;;;24.82;53.86
81865;BME280;71313;43.514;1.500;2023-09-19T10:44:47;100228.00;;;24.99;52.92
81865;BME280;71313;43.514;1.500;2023-09-19T10:47:19;100221.91;;;25.18;52.79
81865;BME280;71313;43.514;1.500;2023-09-19T10:49:45;100228.13;;;25.41;51.13
81865;BME280;71313;43.514;1.500;2023-09-19T10:52:15;100226.03;;;25.43;50.34
81865;BME280;71313;43.514;1.500;2023-09-19T10:54:46;100224.59;;;25.47;50.33
81865;BME280;71313;43.514;1.500;2023-09-19T10:57:20;100210.00;;;25.47;50.19
81865;BME280;71313;43.514;1.500;2023-09-19T11:00:06;100210.47;;;25.50;50.55
81865;BME280;71313;43.514;1.500;2023-09-19T11:05:37;100210.81;;;25.62;50.21
81865;BME280;71313;43.514;1.500;2023-09-19T11:08:10;100218.00;;;25.78;49.17
81865;BME280;71313;43.514;1.500;2023-09-19T11:10:47;100213.13;;;26.01;48.09
81865;BME280;71313;43.514;1.500;2023-09-19T11:13:26;100214.19;;;26.49;47.14
81865;BME280;71313;43.514;1.500;2023-09-19T11:26:49;100193.56;;;29.90;40.51
81865;BME280;71313;43.514;1.500;2023-09-19T11:29:25;100190.47;;;30.55;40.17
81865;BME280;71313;43.514;1.500;2023-09-19T11:31:51;100188.19;;;30.27;40.45
81865;BME280;71313;43.514;1.500;2023-09-19T11:37:00;100180.63;;;28.82;42.21
81865;BME280;71313;43.514;1.500;2023-09-19T11:39:29;100186.66;;;28.12;43.01
81865;BME280;71313;43.514;1.500;2023-09-19T11:41:54;100181.97;;;27.87;43.98
81865;BME280;71313;43.514;1.500;2023-09-19T11:46:56;100165.09;;;29.83;42.01
81865;BME280;71313;43.514;1.500;2023-09-19T11:49:31;100175.31;;;30.57;39.39
81865;BME280;71313;43.514;1.500;2023-09-19T11:52:02;100171.44;;;30.65;38.88
81865;BME280;71313;43.514;1.500;2023-09-19T11:54:33;100173.06;;;30.73;38.91
81865;BME280;71313;43.514;1.500;2023-09-19T11:57:01;100157.06;;;30.93;39.41
81865;BME280;71313;43.514;1.500;2023-09-19T11:59:29;100154.91;;;30.95;38.50
81865;BME280;71313;43.514;1.500;2023-09-19T12:04:42;100160.34;;;30.65;36.89
81865;BME280;71313;43.514;1.500;2023-09-19T12:07:14;100154.22;;;30.38;37.27
81865;BME280;71313;43.514;1.500;2023-09-19T12:09:47;100148.22;;;30.41;38.17
81865;BME280;71313;43.514;1.500;2023-09-19T12:12:24;100144.22;;;30.55;37.27
81865;BME280;71313;43.514;1.500;2023-09-19T12:14:53;100144.59;;;30.65;37.00
81865;BME280;71313;43.514;1.500;2023-09-19T12:17:18;100145.66;;;31.01;37.23
81865;BME280;71313;43.514;1.500;2023-09-19T12:19:55;100140.19;;;31.43;37.16
81865;BME280;71313;43.514;1.500;2023-09-19T12:22:21;100137.47;;;31.96;36.73
81865;BME280;71313;43.514;1.500;2023-09-19T12:24:47;100132.94;;;32.37;36.15
81865;BME280;71313;43.514;1.500;2023-09-19T12:27:13;100125.19;;;32.74;34.85
81865;BME280;71313;43.514;1.500;2023-09-19T12:29:43;100130.97;;;32.84;33.97
81865;BME280;71313;43.514;1.500;2023-09-19T12:32:09;100121.56;;;32.85;33.59
81865;BME280;71313;43.514;1.500;2023-09-19T12:34:35;100125.19;;;32.74;33.57
81865;BME280;71313;43.514;1.500;2023-09-19T12:37:14;100114.06;;;32.85;33.41
81865;BME280;71313;43.514;1.500;2023-09-19T12:39:48;100105.47;;;32.75;33.12
81865;BME280;71313;43.514;1.500;2023-09-19T12:42:19;100107.06;;;32.59;32.90
81865;BME280;71313;43.514;1.500;2023-09-19T12:44:46;100105.75;;;32.62;33.95
81865;BME280;71313;43.514;1.500;2023-09-19T12:47:17;100105.28;;;32.53;33.12
81865;BME280;71313;43.514;1.500;2023-09-19T12:50:13;100092.38;;;32.24;31.99
81865;BME280;71313;43.514;1.500;2023-09-19T12:52:52;100093.53;;;32.05;33.12
81865;BME280;71313;43.514;1.500;2023-09-19T12:58:00;100083.38;;;31.75;32.44
81865;BME280;71313;43.514;1.500;2023-09-19T13:00:44;100069.81;;;31.67;32.86
81865;BME280;71313;43.514;1.500;2023-09-19T13:03:25;100068.94;;;31.55;32.29
81865;BME280;71313;43.514;1.500;2023-09-19T13:05:54;100066.38;;;31.42;33.47
81865;BME280;71313;43.514;1.500;2023-09-19T13:08:41;100059.63;;;31.38;34.02
81865;BME280;71313;43.514;1.500;2023-09-19T13:11:15;100051.44;;;31.43;32.84
81865;BME280;71313;43.514;1.500;2023-09-19T13:17:01;100044.47;;;31.52;33.32
81865;BME280;71313;43.514;1.500;2023-09-19T13:22:39;100041.56;;;31.47;34.20
81865;BME280;71313;43.514;1.500;2023-09-19T13:25:15;100031.66;;;31.51;34.56
81865;BME280;71313;43.514;1.500;2023-09-19T13:27:46;100029.88;;;31.56;34.35
81865;BME280;71313;43.514;1.500;2023-09-19T13:30:13;100023.59;;;31.61;35.46
81865;BME280;71313;43.514;1.500;2023-09-19T13:32:39;100023.72;;;31.66;35.23
81865;BME280;71313;43.514;1.500;2023-09-19T13:35:06;100022.41;;;31.57;35.18
81865;BME280;71313;43.514;1.500;2023-09-19T13:37:34;100021.31;;;31.58;34.88
81865;BME280;71313;43.514;1.500;2023-09-19T13:40:05;100014.56;;;31.54;34.50
81865;BME280;71313;43.514;1.500;2023-09-19T13:42:31;100005.75;;;31.45;34.87
81865;BME280;71313;43.514;1.500;2023-09-19T13:44:57;100013.09;;;31.40;33.56
81865;BME280;71313;43.514;1.500;2023-09-19T13:47:22;100007.91;;;31.43;33.18
81865;BME280;71313;43.514;1.500;2023-09-19T13:49:50;100005.97;;;31.44;33.49
81865;BME280;71313;43.514;1.500;2023-09-19T13:52:18;99994.75;;;31.39;32.92
81865;BME280;71313;43.514;1.500;2023-09-19T13:54:44;99985.81;;;31.37;33.07
81865;BME280;71313;43.514;1.500;2023-09-19T13:57:09;99981.38;;;31.36;34.16